Latest Weather Observations for Strathalbyn

IDS60901

Issued at 1:11 am CDT Tuesday 26 March 2019 (issued every 10 minutes, with the page automatically refreshed every 10 minutes)

About weather observations | Map of Adelaide area stations | Latest observations for Adelaide area | Other Formats
Station Details ID: 024580 Name: STRATHALBYN RACECOURSE Lat: -35.28 Lon: 138.89 Height: 58.0 m
Data from the previous 72 hours. | See also: Recent months at Strathalbyn
Date/Time
CDT
Temp
°C
App
Temp
°C
Dew
Point
°C
Rel
Hum
%
Delta-T
°C
Wind Press
QNH
hPa
Press
MSL
hPa
Rain since
9am
mm
Dir  Spd
km/h
Gust
km/h
Spd
kts
Gust
kts
26/01:00am 12.6 8.2 4.6 58 3.7 W 17 22 9 12 1019.7 1019.6 0.0
26/12:30am 12.6 8.6 4.8 59 3.6 WNW 15 19 8 10 1019.8 1019.7 0.0
26/12:00am 12.6 8.1 4.3 57 3.8 W 17 24 9 13 1019.4 1019.3 0.0
 
Date/Time
CDT
Temp
°C
App
Temp
°C
Dew
Point
°C
Rel
Hum
%
Delta-T
°C
Wind Press
QNH
hPa
Press
MSL
hPa
Rain since
9am
mm
Dir  Spd
km/h
Gust
km/h
Spd
kts
Gust
kts
25/11:30pm 12.9 8.5 4.6 57 3.8 W 17 20 9 11 1019.4 1019.3 0.0
25/11:00pm 12.8 8.4 4.5 57 3.8 W 17 24 9 13 1019.5 1019.4 0.0
25/10:30pm 12.9 8.3 3.6 53 4.2 W 17 22 9 12 1019.5 1019.4 0.0
25/10:00pm 12.7 8.4 3.4 53 4.2 W 15 17 8 9 1019.2 1019.1 0.0
25/09:30pm 12.8 9.0 4.0 55 4.0 W 13 15 7 8 1018.9 1018.8 0.0
25/09:00pm 13.2 10.0 4.9 57 3.8 WSW 11 15 6 8 1018.4 1018.3 0.0
25/08:30pm 14.0 10.9 5.4 56 4.0 SW 11 15 6 8 1017.9 1017.8 0.0
25/08:00pm 14.7 9.8 5.2 53 4.5 SSW 20 26 11 14 1017.4 1017.3 0.0
25/07:30pm 15.4 10.6 4.8 49 5.0 SW 19 26 10 14 1016.8 1016.7 0.0
25/07:00pm 15.8 9.8 5.4 50 5.0 SSW 26 33 14 18 1016.2 1016.1 0.0
25/06:30pm 16.5 9.7 4.9 46 5.5 SSW 30 41 16 22 1016.1 1016.0 0.0
25/06:00pm 16.7 10.3 5.3 47 5.5 SSW 28 39 15 21 1015.7 1015.6 0.0
25/05:30pm 16.6 10.0 5.9 49 5.2 SSW 30 44 16 24 1015.1 1015.0 0.0
25/05:00pm 17.1 10.4 5.4 46 5.6 SSW 30 41 16 22 1014.8 1014.7 0.0
25/04:30pm 18.2 12.0 4.4 40 6.6 W 26 33 14 18 1014.8 1014.7 0.0
25/04:00pm 18.9 12.1 3.1 35 7.4 WSW 28 39 15 21 1014.6 1014.5 0.0
25/03:30pm 19.5 12.7 3.2 34 7.7 WSW 28 43 15 23 1014.3 1014.2 0.0
25/03:00pm 18.2 12.4 4.4 40 6.6 WSW 24 33 13 18 1014.4 1014.3 0.0
25/02:30pm 18.4 11.2 3.1 36 7.1 WSW 30 37 16 20 1014.4 1014.3 0.0
25/02:00pm 19.7 12.8 2.6 32 8.0 W 28 43 15 23 1014.4 1014.3 0.0
25/01:30pm 19.4 11.4 3.6 35 7.5 W 35 46 19 25 1014.3 1014.2 0.0
25/01:00pm 18.6 11.2 2.0 33 7.6 WSW 30 44 16 24 1014.4 1014.3 0.0
25/12:37pm 19.2 11.9 2.6 33 7.7 WSW 30 50 16 27 1014.3 1014.2 0.0
25/12:30pm 18.4 11.1 4.6 40 6.6 W 32 44 17 24 1014.4 1014.3 0.0
25/12:00pm 18.4 10.0 3.5 37 7.0 WSW 37 54 20 29 1014.4 1014.3 0.0
25/11:31am 18.0 10.4 2.7 36 7.0 WSW 32 50 17 27 1014.4 1014.3 0.0
25/11:30am 18.5 11.0 3.2 36 7.1 WSW 32 48 17 26 1014.3 1014.2 0.0
25/11:23am 17.9 10.3 2.6 36 7.0 WSW 32 50 17 27 1014.3 1014.2 0.0
25/11:00am 17.4 10.8 4.4 42 6.2 WSW 28 44 15 24 1014.0 1013.9 0.0
25/10:40am 17.0 9.5 4.3 43 6.0 WSW 33 52 18 28 1013.7 1013.6 0.0
25/10:30am 16.1 8.8 4.5 46 5.5 WSW 32 48 17 26 1013.6 1013.5 0.0
25/10:16am 16.9 9.6 4.6 44 5.8 WSW 32 50 17 27 1013.3 1013.2 0.0
25/10:00am 16.8 9.4 5.1 46 5.6 WSW 33 46 18 25 1013.1 1013.0 0.0
25/09:39am 16.0 9.5 4.7 47 5.3 WSW 28 48 15 26 1012.8 1012.7 0.0
25/09:30am 16.3 10.2 4.7 46 5.5 WSW 26 41 14 22 1012.7 1012.6 0.0
25/09:09am 15.4 8.7 3.9 46 5.3 WSW 28 56 15 30 1012.3 1012.2 0.0
25/09:00am 15.6 10.3 5.2 50 4.9 WSW 22 35 12 19 1012.3 1012.2 0.0
25/08:30am 14.5 9.7 5.6 55 4.2 SW 20 35 11 19 1011.9 1011.8 0.0
25/08:00am 14.3 9.4 4.9 53 4.4 SW 20 28 11 15 1011.4 1011.3 0.0
25/07:30am 14.6 9.4 5.4 54 4.4 WSW 22 33 12 18 1010.7 1010.5 0.0
25/07:00am 14.6 9.8 4.9 52 4.5 SW 19 28 10 15 1010.3 1010.1 0.0
25/06:30am 14.8 9.2 5.3 53 4.5 WSW 24 33 13 18 1009.9 1009.7 0.0
25/06:00am 14.9 10.2 6.2 56 4.2 WSW 20 32 11 17 1009.4 1009.2 0.0
25/05:30am 14.9 9.5 6.2 56 4.2 WSW 24 41 13 22 1008.9 1008.7 0.0
25/05:00am 15.2 9.7 5.7 53 4.5 WSW 24 43 13 23 1008.4 1008.2 0.0
25/04:30am 15.5 10.2 6.8 56 4.3 WSW 24 41 13 22 1008.0 1007.8 0.0
25/04:00am 15.4 10.4 7.9 61 3.8 WSW 24 48 13 26 1007.6 1007.4 0.0
25/03:30am 15.0 10.6 8.9 67 3.1 WSW 22 35 12 19 1007.6 1007.4 0.0
25/03:00am 15.0 10.3 9.4 69 2.9 W 24 33 13 18 1007.6 1007.4 0.0
25/02:30am 16.4 10.0 8.6 60 4.0 WSW 32 57 17 31 1007.4 1007.2 0.0
25/02:03am 16.8 10.3 8.2 57 4.4 W 32 50 17 27 1006.9 1006.7 0.0
25/02:00am 16.9 10.2 8.3 57 4.4 W 33 50 18 27 1006.9 1006.7 0.0
25/01:51am 17.0 11.3 8.2 56 4.5 WSW 28 46 15 25 1006.9 1006.7 0.0
25/01:30am 17.2 11.7 7.5 53 4.9 W 26 41 14 22 1006.8 1006.6 0.0
25/01:00am 17.5 13.2 9.2 58 4.3 WSW 22 35 12 19 1006.7 1006.5 0.0
25/12:30am 17.5 13.1 8.9 57 4.5 WSW 22 35 12 19 1006.8 1006.6 0.0
25/12:00am 17.6 13.7 10.7 64 3.7 SW 22 39 12 21 1006.6 1006.4 0.0
 
Date/Time
CDT
Temp
°C
App
Temp
°C
Dew
Point
°C
Rel
Hum
%
Delta-T
°C
Wind Press
QNH
hPa
Press
MSL
hPa
Rain since
9am
mm
Dir  Spd
km/h
Gust
km/h
Spd
kts
Gust
kts
24/11:30pm 17.5 12.9 12.2 71 2.9 WSW 28 48 15 26 1006.5 1006.3 0.0
24/11:01pm 17.9 13.1 13.0 73 2.8 WSW 30 48 16 26 1006.2 1006.0 0.0
24/11:00pm 17.9 12.8 13.0 73 2.8 WSW 32 48 17 26 1006.2 1006.0 0.0
24/10:42pm 18.2 13.9 13.1 72 2.9 WSW 28 57 15 31 1006.1 1005.9 0.0
24/10:30pm 18.6 15.9 13.5 72 2.9 WSW 20 35 11 19 1006.0 1005.8 0.0
24/10:00pm 20.2 15.3 11.4 57 4.9 W 28 48 15 26 1005.4 1005.2 0.0
24/09:30pm 20.4 12.6 11.3 56 5.0 W 43 65 23 35 1004.5 1004.3 0.0
24/09:20pm 20.3 13.3 11.2 56 5.0 W 39 72 21 39 1004.4 1004.2 0.0
24/09:02pm 20.2 13.9 11.1 56 5.0 W 35 54 19 29 1004.4 1004.2 0.0
24/09:00pm 20.3 13.7 11.2 56 5.0 W 37 54 20 29 1004.4 1004.2 0.0
24/08:30pm 20.6 14.7 12.3 59 4.7 WNW 35 56 19 30 1004.2 1004.0 0.0
24/08:00pm 20.3 15.8 13.7 66 3.8 W 30 59 16 32 1004.5 1004.3 0.0
24/07:52pm 20.5 16.0 13.7 65 3.9 W 30 59 16 32 1004.5 1004.3 0.0
24/07:45pm 20.8 15.2 13.3 62 4.3 W 35 57 19 31 1004.5 1004.3 0.0
24/07:30pm 21.7 14.8 11.7 53 5.6 WNW 39 59 21 32 1004.2 1004.0 0.0
24/07:00pm 21.9 16.0 11.3 51 5.9 WNW 33 67 18 36 1004.0 1003.8 0.0
24/06:30pm 22.6 15.6 11.4 49 6.3 WNW 39 57 21 31 1003.6 1003.4 0.0
24/06:00pm 22.4 14.6 11.8 51 6.0 WNW 44 67 24 36 1003.0 1002.8 0.0
24/05:30pm 22.3 15.2 12.3 53 5.7 WNW 41 61 22 33 1003.6 1003.4 0.0
24/05:04pm 22.2 16.6 13.3 57 5.1 WNW 35 57 19 31 1004.8 1004.6 0.0
24/05:00pm 22.2 17.3 13.8 59 4.9 W 32 48 17 26 1004.8 1004.6 0.0
24/04:41pm 22.5 18.8 15.1 63 4.4 WNW 28 50 15 27 1004.8 1004.6 0.0
24/04:30pm 22.4 19.2 16.2 68 3.8 WNW 28 43 15 23 1004.7 1004.5 0.0
24/04:20pm 22.5 18.6 15.4 64 4.3 WNW 30 48 16 26 1004.9 1004.7 0.0
24/04:00pm 23.8 18.4 15.0 57 5.3 WNW 37 54 20 29 1004.7 1004.5 0.0
24/03:31pm 24.7 20.0 14.8 54 5.9 NW 33 52 18 28 1004.7 1004.5 0.0
24/03:30pm 24.5 19.3 14.6 54 5.9 NW 35 52 19 28 1004.6 1004.4 0.0
24/03:20pm 24.6 20.0 14.7 54 5.9 NW 32 52 17 28 1004.7 1004.5 0.0
24/03:00pm 25.3 20.4 14.4 50 6.5 NW 33 48 18 26 1004.9 1004.7 0.0
24/02:30pm 25.2 20.1 13.7 49 6.8 WNW 33 52 18 28 1005.6 1005.4 0.0
24/02:08pm 26.4 22.0 12.8 43 7.9 NW 28 46 15 25 1005.6 1005.4 0.0
24/02:00pm 26.3 22.0 13.1 44 7.7 WNW 28 37 15 20 1005.7 1005.5 0.0
24/01:30pm 26.8 21.7 13.2 43 8.0 NW 32 43 17 23 1006.3 1006.1 0.0
24/01:00pm 26.5 22.1 12.9 43 7.9 NW 28 41 15 22 1006.8 1006.6 0.0
24/12:30pm 25.8 21.8 13.0 45 7.5 NW 26 37 14 20 1007.3 1007.1 0.0
24/12:00pm 26.6 23.7 14.0 46 7.5 NW 22 32 12 17 1007.4 1007.2 0.0
24/11:30am 25.5 25.8 16.1 56 5.8 ENE 9 15 5 8 1008.0 1007.8 0.0
24/11:00am 23.6 23.9 15.9 62 4.7 NE 9 13 5 7 1008.3 1008.1 0.0
24/10:30am 22.1 23.1 16.8 72 3.2 NE 7 11 4 6 1008.5 1008.3 0.0
24/10:00am 20.0 21.3 17.2 84 1.7 ENE 6 7 3 4 1008.8 1008.6 0.0
24/09:30am 18.8 21.6 18.0 95 0.5 CALM 0 0 0 0 1009.5 1009.3 0.0
24/09:00am 18.6 20.8 18.3 98 0.2 NNE 4 7 2 4 1009.6 1009.4 0.8
24/08:30am 17.7 18.8 17.2 97 0.3 N 7 9 4 5 1009.9 1009.7 0.8
24/08:00am 17.9 18.7 17.4 97 0.3 NE 9 11 5 6 1009.8 1009.6 0.8
24/07:30am 17.9 18.7 17.4 97 0.3 NE 9 11 5 6 1009.9 1009.7 0.8
24/07:00am 17.9 19.3 17.4 97 0.3 E 6 7 3 4 1010.2 1010.0 0.8
24/06:30am 17.8 19.2 17.3 97 0.3 E 6 7 3 4 1010.2 1010.0 0.8
24/06:00am 17.7 19.4 17.2 97 0.3 SE 4 6 2 3 1010.3 1010.1 0.8
24/05:30am 17.8 18.9 17.2 96 0.4 SSE 7 9 4 5 1010.4 1010.2 0.8
24/05:00am 17.9 18.7 17.3 96 0.4 SSE 9 11 5 6 1010.2 1010.0 0.2
24/04:30am 18.1 18.5 17.3 95 0.5 S 11 13 6 7 1010.4 1010.2 0.0
24/04:00am 18.5 19.5 16.3 87 1.3 S 6 13 3 7 1010.6 1010.4 0.0
24/03:30am 18.9 19.2 16.0 83 1.7 SSW 9 11 5 6 1010.7 1010.5 0.0
24/03:00am 19.0 18.9 14.9 77 2.4 S 9 11 5 6 1011.0 1010.8 0.0
24/02:30am 18.9 20.2 14.2 74 2.7 CALM 0 0 0 0 1011.2 1011.1 0.0
24/02:00am 18.8 19.8 14.3 75 2.6 NE 2 6 1 3 1011.6 1011.5 0.0
24/01:30am 18.4 18.5 13.9 75 2.6 ENE 6 7 3 4 1011.6 1011.5 0.0
24/01:00am 18.6 20.0 14.3 76 2.5 CALM 0 0 0 0 1011.9 1011.8 0.0
24/12:30am 18.5 19.7 13.8 74 2.7 CALM 0 0 0 0 1012.2 1012.1 0.0
24/12:00am 19.2 18.9 14.5 74 2.7 W 9 11 5 6 1012.1 1012.0 0.0
 
Date/Time
CDT
Temp
°C
App
Temp
°C
Dew
Point
°C
Rel
Hum
%
Delta-T
°C
Wind Press
QNH
hPa
Press
MSL
hPa
Rain since
9am
mm
Dir  Spd
km/h
Gust
km/h
Spd
kts
Gust
kts
23/11:30pm 18.5 18.6 13.8 74 2.7 NNW 6 7 3 4 1012.6 1012.5 0.0
23/11:00pm 18.3 18.7 13.8 75 2.6 S 4 7 2 4 1012.5 1012.4 0.0
23/10:30pm 18.8 18.8 14.1 74 2.7 NNE 7 9 4 5 1012.1 1012.0 0.0
23/10:00pm 19.1 19.8 14.4 74 2.7 E 4 6 2 3 1012.5 1012.4 0.0
23/09:30pm 19.8 21.2 14.4 71 3.1 CALM 0 0 0 0 1012.6 1012.5 0.0
23/09:00pm 19.6 21.1 14.6 73 2.9 CALM 0 0 0 0 1012.8 1012.7 0.0
23/08:30pm 19.6 19.9 14.6 73 2.9 S 6 6 3 3 1012.9 1012.8 0.0
23/08:00pm 19.7 19.9 14.7 73 2.9 SSW 7 9 4 5 1012.9 1012.8 0.0
23/07:30pm 20.0 19.5 14.8 72 3.1 SSW 11 13 6 7 1012.5 1012.4 0.0
23/07:00pm 20.4 19.8 14.7 70 3.3 SSW 11 13 6 7 1012.1 1012.0 0.0
23/06:30pm 21.0 19.6 14.6 67 3.8 SSW 15 19 8 10 1011.4 1011.3 0.0
23/06:00pm 21.8 20.1 14.7 64 4.2 S 17 20 9 11 1011.1 1010.9 0.0
23/05:30pm 22.3 20.6 14.7 62 4.5 S 17 22 9 12 1010.3 1010.1 0.0
23/05:00pm 23.2 21.3 14.2 57 5.3 S 17 22 9 12 1010.1 1009.9 0.0
23/04:30pm 24.1 22.3 14.5 55 5.7 SSW 17 28 9 15 1009.9 1009.7 0.0
23/04:00pm 25.4 23.1 12.9 45 7.3 SW 17 22 9 12 1009.7 1009.5 0.0
23/03:30pm 26.4 23.2 13.2 44 7.8 W 22 32 12 17 1009.8 1009.6 0.0
23/03:00pm 25.4 22.3 12.3 44 7.6 WSW 20 32 11 17 1009.9 1009.7 0.0
23/02:30pm 24.6 22.0 13.2 49 6.6 W 19 28 10 15 1010.2 1010.0 0.0
23/02:00pm 24.2 21.0 13.1 50 6.4 W 22 30 12 16 1010.4 1010.2 0.0
23/01:30pm 24.3 21.6 13.5 51 6.3 WSW 20 28 11 15 1010.6 1010.4 0.0
23/01:00pm 23.9 21.0 14.0 54 5.8 WSW 22 33 12 18 1011.0 1010.8 0.0
23/12:30pm 24.2 21.0 13.1 50 6.4 WSW 22 32 12 17 1010.8 1010.6 0.0
23/12:00pm 25.1 22.7 12.7 46 7.2 W 17 26 9 14 1010.6 1010.4 0.0
23/11:30am 25.2 22.1 11.7 43 7.7 W 19 30 10 16 1010.6 1010.4 0.0
23/11:00am 24.0 21.4 13.2 50 6.3 W 19 26 10 14 1010.8 1010.6 0.0
23/10:30am 23.4 19.8 13.0 52 6.0 WSW 24 32 13 17 1010.7 1010.5 0.0
23/10:00am 23.2 21.0 14.5 58 5.1 WNW 19 30 10 16 1010.5 1010.3 0.0
23/09:30am 22.5 21.1 14.6 61 4.7 W 15 24 8 13 1010.1 1009.9 0.0
23/09:00am 21.5 20.8 15.3 68 3.7 WSW 13 20 7 11 1009.8 1009.6 0.0
23/08:30am 20.2 19.5 15.4 74 2.9 W 13 17 7 9 1009.7 1009.5 0.0
23/08:00am 19.8 18.7 15.2 75 2.7 W 15 20 8 11 1009.1 1008.9 0.0
23/07:30am 19.3 19.7 15.4 78 2.3 W 7 13 4 7 1008.8 1008.6 0.0
23/07:00am 19.0 19.3 15.1 78 2.3 WSW 7 11 4 6 1008.6 1008.4 0.0
23/06:30am 18.9 19.5 15.2 79 2.2 WSW 6 7 3 4 1008.5 1008.3 0.0
23/06:00am 19.5 19.2 15.4 77 2.4 W 11 15 6 8 1008.3 1008.1 0.0
23/05:30am 19.1 19.7 15.2 78 2.3 SW 6 9 3 5 1007.9 1007.7 0.0
23/05:00am 19.9 21.3 15.3 75 2.7 SW 2 9 1 5 1007.7 1007.5 0.0
23/04:30am 20.3 21.6 15.1 72 3.1 SSW 2 7 1 4 1007.7 1007.5 0.0
23/04:00am 20.0 20.5 15.6 76 2.6 S 7 11 4 6 1007.5 1007.3 0.0
23/03:30am 19.0 21.1 16.2 84 1.7 CALM 0 6 0 3 1007.6 1007.4 0.0
23/03:00am 18.6 20.1 15.8 84 1.7 E 2 7 1 4 1007.7 1007.5 0.0
23/02:30am 18.6 20.5 15.8 84 1.7 CALM 0 7 0 4 1007.7 1007.5 0.0
23/02:00am 18.5 20.3 15.4 82 1.8 CALM 0 0 0 0 1007.9 1007.7 0.0
23/01:30am 18.8 20.7 15.7 82 1.8 CALM 0 0 0 0 1008.1 1007.9 0.0

Latest Capital City Observations: Canberra | Sydney | Melbourne | Brisbane | Adelaide | Perth | Hobart | Darwin

Other formats

Comma delimited format used in spreadsheet applications
http://www.bom.gov.au/fwo/IDS60901/IDS60901.94814.axf

JavaScript Object Notation format (JSON) in row-major order
http://www.bom.gov.au/fwo/IDS60901/IDS60901.94814.json

Data quality

Most of these data are generated automatically and are frequently updated. Quality checks on data are not normally performed. It is possible for incorrect values to appear. Refer to information at About Latest Weather Observations and please check the disclaimer before using these data.